Time;durP1;ratioP1;P1;durP2;ratioP2;P2;SDS_P1;SDS_P2;PMS_P1;PMS_P2;Temp;Humidity;BMP_temperature;BMP_pressure;BME280_temperature;BME280_humidity;BME280_pressure;Samples;Min_cycle;Max_cycle;Signal;HPM_P1;HPM_P2
2024/02/10 00:01:18;;;;;;;0.20;0.20;;;;;;;12.09;71.28;98550.94;5051632;28;20028;-82
2024/02/10 00:03:45;;;;;;;0.52;0.52;;;;;;;12.10;71.17;98553.47;5056776;28;20036;-82
2024/02/10 00:06:15;;;;;;;0.20;0.20;;;;;;;12.09;71.28;98550.94;5057805;28;20029;-82
2024/02/10 00:08:43;;;;;;;0.47;0.47;;;;;;;12.04;71.26;98545.91;5057206;28;20021;-83
2024/02/10 00:11:11;;;;;;;0.10;0.10;;;;;;;12.04;70.91;98543.25;5063653;28;20029;-83
2024/02/10 00:13:39;;;;;;;0.10;0.10;;;;;;;12.02;70.52;98547.78;5061086;28;20051;-82
2024/02/10 00:16:06;;;;;;;0.10;0.10;;;;;;;11.98;71.06;98549.78;5068741;28;20024;-82
2024/02/10 00:18:32;;;;;;;0.10;0.10;;;;;;;11.96;71.01;98550.81;5071664;28;20400;-82
2024/02/10 00:21:00;;;;;;;0.10;0.10;;;;;;;11.94;70.94;98547.41;5072326;28;20032;-80
2024/02/10 00:23:26;;;;;;;0.10;0.10;;;;;;;11.89;71.04;98549.50;5070554;28;20477;-80
2024/02/10 00:25:52;;;;;;;0.10;0.10;;;;;;;11.89;71.05;98560.97;5072369;28;20017;-81
2024/02/10 00:28:19;;;;;;;0.10;0.10;;;;;;;11.86;70.79;98554.97;5065117;28;20020;-81
2024/02/10 00:30:46;;;;;;;0.10;0.10;;;;;;;11.84;71.27;98557.75;5069313;28;20028;-81
2024/02/10 00:33:12;;;;;;;0.10;0.10;;;;;;;11.86;71.33;98553.16;5073427;28;20033;-81
2024/02/10 00:35:38;;;;;;;0.10;0.10;;;;;;;11.88;71.21;98543.31;5074369;28;20029;-81
2024/02/10 00:38:06;;;;;;;0.10;0.10;;;;;;;11.92;70.70;98544.81;5074390;28;20040;-81
2024/02/10 00:40:33;;;;;;;0.10;0.10;;;;;;;11.94;71.47;98542.09;5072733;28;20039;-80
2024/02/10 00:43:00;;;;;;;0.20;0.20;;;;;;;11.96;71.49;98543.75;5074871;28;20029;-81
2024/02/10 00:45:26;;;;;;;0.15;0.15;;;;;;;11.96;71.18;98542.88;5071901;28;20017;-81
2024/02/10 00:47:53;;;;;;;1.48;0.45;;;;;;;11.96;70.82;98549.03;5075493;28;20029;-81
2024/02/10 00:50:19;;;;;;;0.13;0.13;;;;;;;11.97;71.31;98544.59;5082603;28;20025;-81
2024/02/10 00:52:48;;;;;;;0.10;0.10;;;;;;;11.96;71.60;98545.53;5085363;28;20028;-82
2024/02/10 00:55:14;;;;;;;0.30;0.30;;;;;;;12.00;70.85;98546.19;5087612;28;20025;-81
2024/02/10 00:57:42;;;;;;;0.10;0.10;;;;;;;12.01;71.18;98542.59;5076806;28;20021;-82
2024/02/10 01:00:16;;;;;;;0.10;0.10;;;;;;;12.01;70.91;98545.25;5086018;28;20028;-80
2024/02/10 01:02:45;;;;;;;0.25;0.25;;;;;;;11.98;71.17;98549.78;5077207;28;20059;-81
2024/02/10 01:05:12;;;;;;;0.10;0.10;;;;;;;12.00;71.14;98541.75;5069152;28;20032;-80
2024/02/10 01:07:42;;;;;;;0.10;0.10;;;;;;;12.02;71.63;98539.00;5067429;28;20028;-80
2024/02/10 01:10:09;;;;;;;0.10;0.10;;;;;;;12.04;71.02;98542.41;5069957;28;20024;-80
2024/02/10 01:12:35;;;;;;;0.10;0.10;;;;;;;12.05;71.22;98546.75;5067498;28;20021;-80
2024/02/10 01:15:02;;;;;;;0.20;0.20;;;;;;;12.01;71.32;98553.19;5077330;28;20060;-80
2024/02/10 01:17:28;;;;;;;0.10;0.10;;;;;;;12.03;71.62;98548.66;5069187;28;20036;-80
2024/02/10 01:19:54;;;;;;;0.10;0.10;;;;;;;12.03;71.36;98551.31;5075726;28;20017;-80
2024/02/10 01:22:25;;;;;;;0.45;0.45;;;;;;;12.03;70.96;98553.97;5074805;28;20025;-81
2024/02/10 01:24:55;;;;;;;0.10;0.10;;;;;;;12.02;71.33;98546.94;5059755;28;20116;-79
2024/02/10 01:27:25;;;;;;;0.10;0.10;;;;;;;12.01;71.74;98542.59;5060948;28;20104;-81
2024/02/10 01:29:52;;;;;;;0.38;0.38;;;;;;;12.01;71.36;98553.19;5074796;28;20039;-80
2024/02/10 01:32:19;;;;;;;0.10;0.10;;;;;;;12.00;71.73;98546.19;5075335;28;20013;-81
2024/02/10 01:34:48;;;;;;;0.60;0.60;;;;;;;12.02;71.60;98549.59;5074860;28;20017;-80
2024/02/10 01:37:17;;;;;;;0.22;0.22;;;;;;;12.05;71.62;98547.63;5080460;28;20024;-80
2024/02/10 01:39:45;;;;;;;0.10;0.10;;;;;;;12.07;71.75;98552.81;5081386;28;20111;-81
2024/02/10 01:42:15;;;;;;;0.10;0.10;;;;;;;12.10;71.39;98556.13;5081501;28;20032;-81
2024/02/10 01:44:44;;;;;;;0.85;0.85;;;;;;;12.10;71.54;98556.13;5076065;28;20031;-81
2024/02/10 01:47:13;;;;;;;0.20;0.20;;;;;;;12.14;71.41;98554.97;5081465;28;20024;-81
2024/02/10 01:49:41;;;;;;;0.20;0.20;;;;;;;12.15;71.85;98553.19;5078855;28;20036;-81
2024/02/10 01:52:09;;;;;;;0.10;0.10;;;;;;;12.12;71.63;98556.91;5084194;28;20626;-82
2024/02/10 01:54:38;;;;;;;0.10;0.10;;;;;;;12.09;71.93;98557.09;5078323;28;20020;-82
2024/02/10 01:57:06;;;;;;;0.30;0.30;;;;;;;12.04;71.87;98555.69;5081767;28;20389;-81
2024/02/10 01:59:36;;;;;;;0.30;0.30;;;;;;;12.02;71.54;98560.22;5080292;28;20095;-81
2024/02/10 02:02:03;;;;;;;0.10;0.10;;;;;;;11.96;71.99;98564.97;5087731;28;20060;-81
2024/02/10 02:04:31;;;;;;;0.50;0.50;;;;;;;11.92;71.75;98566.06;5083972;28;20025;-81
2024/02/10 02:07:00;;;;;;;0.10;0.10;;;;;;;11.93;71.40;98573.06;5082020;28;20100;-81
2024/02/10 02:09:28;;;;;;;1.27;1.27;;;;;;;11.92;71.87;98571.38;5071159;28;20385;-80
2024/02/10 02:11:54;;;;;;;0.10;0.10;;;;;;;11.93;72.00;98566.94;5071764;28;20036;-80
2024/02/10 02:14:20;;;;;;;0.20;0.20;;;;;;;11.93;71.87;98566.94;5058949;28;20036;-80
2024/02/10 02:16:46;;;;;;;0.10;0.10;;;;;;;11.93;72.22;98554.50;5064654;28;20412;-80
2024/02/10 02:19:14;;;;;;;1.00;1.00;;;;;;;11.93;72.18;98561.63;5068043;28;20051;-80
2024/02/10 02:21:42;;;;;;;0.85;0.85;;;;;;;11.94;72.20;98561.50;5067630;28;20052;-80
2024/02/10 02:24:09;;;;;;;0.00;0.00;;;;;;;11.93;72.38;98558.97;5069395;28;20029;-80
2024/02/10 02:26:35;;;;;;;0.20;0.20;;;;;;;11.91;72.57;98559.06;5074379;28;20021;-80
2024/02/10 02:29:07;;;;;;;0.20;0.20;;;;;;;11.94;71.99;98558.88;5085052;28;20009;-81
2024/02/10 02:31:35;;;;;;;0.20;0.20;;;;;;;11.93;72.34;98559.81;5086409;28;20058;-80
2024/02/10 02:34:03;;;;;;;0.10;0.10;;;;;;;11.92;72.31;98555.44;5087134;28;20055;-81
2024/02/10 02:36:30;;;;;;;0.10;0.10;;;;;;;11.90;73.28;98562.66;5088358;28;20029;-81
2024/02/10 02:38:58;;;;;;;0.10;0.10;;;;;;;11.94;72.54;98564.16;5088385;28;20052;-80
2024/02/10 02:41:27;;;;;;;0.10;0.10;;;;;;;11.96;72.34;98557.00;5085933;28;20116;-79
2024/02/10 02:43:53;;;;;;;0.10;0.10;;;;;;;11.95;72.92;98544.66;5082882;28;20013;-78
2024/02/10 02:46:19;;;;;;;0.10;0.10;;;;;;;12.00;72.77;98547.06;5086842;28;20017;-79
2024/02/10 02:48:45;;;;;;;0.10;0.10;;;;;;;11.99;72.75;98545.34;5085817;28;20025;-81
2024/02/10 02:51:14;;;;;;;0.10;0.10;;;;;;;12.01;72.84;98546.09;5084506;28;20020;-80
2024/02/10 02:53:40;;;;;;;0.10;0.10;;;;;;;11.97;72.59;98541.94;5082138;28;20017;-81
2024/02/10 02:56:14;;;;;;;0.20;0.20;;;;;;;11.99;72.94;98545.34;5082257;28;20040;-79
2024/02/10 02:58:41;;;;;;;0.10;0.10;;;;;;;11.93;72.20;98551.84;5081628;28;20094;-80
2024/02/10 03:01:07;;;;;;;0.20;0.20;;;;;;;11.90;73.07;98551.19;5082257;28;20643;-79
2024/02/10 03:03:34;;;;;;;0.17;0.17;;;;;;;11.86;72.68;98550.50;5080551;28;20035;-79
2024/02/10 03:06:00;;;;;;;0.10;0.10;;;;;;;11.78;72.36;98547.50;5079680;28;20025;-80
2024/02/10 03:08:27;;;;;;;0.10;0.10;;;;;;;11.74;72.84;98540.66;5084384;28;20029;-80
2024/02/10 03:10:53;;;;;;;0.38;0.38;;;;;;;11.72;72.44;98539.91;5084577;28;20009;-79
2024/02/10 03:13:20;;;;;;;0.30;0.30;;;;;;;11.69;73.13;98540.09;5084671;28;20036;-80
2024/02/10 03:15:46;;;;;;;0.10;0.10;;;;;;;11.63;72.83;98539.53;5084416;28;20035;-80
2024/02/10 03:18:13;;;;;;;0.10;0.10;;;;;;;11.62;72.75;98535.16;5074192;28;20038;-80
2024/02/10 03:20:40;;;;;;;0.52;0.52;;;;;;;11.61;72.57;98533.50;5079418;28;20116;-79
2024/02/10 03:23:07;;;;;;;0.10;0.10;;;;;;;11.64;72.95;98525.31;5079036;28;20056;-79
2024/02/10 03:25:33;;;;;;;0.10;0.10;;;;;;;11.64;73.33;98532.44;5074938;28;20020;-81
2024/02/10 03:28:03;;;;;;;0.10;0.10;;;;;;;11.63;73.03;98533.38;5080473;28;20051;-80
2024/02/10 03:30:29;;;;;;;0.10;0.10;;;;;;;11.61;72.71;98536.13;5082060;28;20021;-81
2024/02/10 03:32:55;;;;;;;0.13;0.13;;;;;;;11.60;72.98;98529.13;5086842;28;20020;-81
2024/02/10 03:35:24;;;;;;;0.10;0.10;;;;;;;11.64;72.87;98525.31;5083920;28;20040;-80
2024/02/10 03:37:50;;;;;;;0.10;0.10;;;;;;;11.62;73.04;98529.88;5083221;28;20040;-80
2024/02/10 03:40:20;;;;;;;0.10;0.10;;;;;;;11.61;73.29;98528.19;5086461;28;20431;-81
2024/02/10 03:42:47;;;;;;;0.10;0.10;;;;;;;11.63;73.47;98523.63;5084314;28;20018;-80
2024/02/10 03:45:15;;;;;;;0.10;0.10;;;;;;;11.66;73.12;98530.53;5083748;28;20020;-80
2024/02/10 03:47:43;;;;;;;0.28;0.28;;;;;;;11.66;73.79;98530.53;5085872;28;20021;-80
2024/02/10 03:50:11;;;;;;;0.50;0.50;;;;;;;11.71;73.60;98530.25;5085336;28;20042;-81
2024/02/10 03:52:38;;;;;;;0.10;0.10;;;;;;;11.73;73.35;98523.06;5083956;28;20023;-82
2024/02/10 03:55:04;;;;;;;0.30;0.30;;;;;;;11.70;73.51;98529.41;5086209;28;20089;-82
2024/02/10 03:57:30;;;;;;;0.10;0.10;;;;;;;11.78;73.60;98531.59;5087622;28;20024;-80
2024/02/10 03:59:57;;;;;;;0.10;0.10;;;;;;;11.76;74.01;98533.47;5085077;28;20040;-82
2024/02/10 04:02:23;;;;;;;0.10;0.10;;;;;;;11.76;73.89;98538.78;5082758;28;20054;-81
2024/02/10 04:04:50;;;;;;;0.85;0.75;;;;;;;11.72;73.40;98531.97;5083947;28;20058;-82
2024/02/10 04:07:16;;;;;;;0.10;0.10;;;;;;;11.72;73.19;98542.56;5086660;28;20032;-81
2024/02/10 04:09:43;;;;;;;0.10;0.10;;;;;;;11.71;73.69;98540.88;5087456;28;20051;-81
2024/02/10 04:12:10;;;;;;;0.10;0.10;;;;;;;11.72;73.79;98548.72;5086545;28;20025;-81
2024/02/10 04:14:36;;;;;;;0.10;0.10;;;;;;;11.76;73.76;98544.09;5071789;28;20021;-81
2024/02/10 04:17:02;;;;;;;0.10;0.10;;;;;;;11.77;74.22;98545.78;5071656;28;20032;-80
2024/02/10 04:19:30;;;;;;;0.10;0.10;;;;;;;11.84;73.40;98557.75;5074162;28;20036;-80
2024/02/10 04:21:56;;;;;;;0.50;0.50;;;;;;;11.82;74.15;98555.19;5075256;28;20040;-81
2024/02/10 04:24:23;;;;;;;0.10;0.10;;;;;;;11.86;74.02;98553.16;5075320;28;20032;-81
2024/02/10 04:26:49;;;;;;;0.10;0.10;;;;;;;11.90;73.89;98548.53;5077314;28;20047;-81
2024/02/10 04:29:16;;;;;;;0.17;0.17;;;;;;;11.91;73.64;98551.09;5079099;28;20028;-81
2024/02/10 04:31:43;;;;;;;0.20;0.20;;;;;;;11.92;74.12;98555.44;5080115;28;20107;-81
2024/02/10 04:34:09;;;;;;;0.95;0.95;;;;;;;11.94;73.75;98545.59;5075346;28;20032;-81
2024/02/10 04:36:36;;;;;;;0.17;0.17;;;;;;;11.93;74.04;98551.00;5070851;28;20511;-82
2024/02/10 04:39:03;;;;;;;0.10;0.10;;;;;;;12.00;73.63;98547.06;5070552;28;20029;-81
2024/02/10 04:41:31;;;;;;;0.17;0.17;;;;;;;12.01;73.86;98548.75;5076136;28;20025;-81
2024/02/10 04:43:58;;;;;;;0.10;0.10;;;;;;;12.00;73.46;98541.75;5073963;28;20029;-81
2024/02/10 04:46:24;;;;;;;0.10;0.10;;;;;;;12.01;73.55;98546.09;5074410;28;20373;-81
2024/02/10 04:48:52;;;;;;;0.10;0.10;;;;;;;12.02;73.25;98544.31;5075977;28;20083;-81
2024/02/10 04:51:19;;;;;;;0.10;0.10;;;;;;;12.02;73.55;98544.31;5076009;28;20521;-81
2024/02/10 04:53:45;;;;;;;0.10;0.10;;;;;;;12.04;73.19;98547.72;5079358;28;20028;-81
2024/02/10 04:56:27;;;;;;;0.10;0.10;;;;;;;12.05;73.29;98549.41;5078614;28;20032;-82
2024/02/10 04:58:54;;;;;;;0.10;0.10;;;;;;;12.04;73.10;98558.34;5081803;28;20028;-78
2024/02/10 05:01:28;;;;;;;0.10;0.10;;;;;;;12.07;72.98;98558.13;5088108;28;20082;-82
2024/02/10 05:03:55;;;;;;;0.10;0.10;;;;;;;12.09;73.32;98553.59;5086567;28;20021;-82
2024/02/10 05:06:21;;;;;;;0.10;0.10;;;;;;;12.08;73.38;98554.53;5087988;28;20059;-81
2024/02/10 05:08:47;;;;;;;0.40;0.40;;;;;;;12.10;73.62;98563.22;5087166;28;20025;-80
2024/02/10 05:11:13;;;;;;;0.10;0.10;;;;;;;12.08;73.33;98560.69;5088328;28;20035;-81
2024/02/10 05:13:39;;;;;;;0.43;0.43;;;;;;;12.07;72.90;98558.97;5086106;28;20035;-81
2024/02/10 05:16:06;;;;;;;0.10;0.10;;;;;;;12.10;72.69;98563.22;5087860;28;20040;-80
2024/02/10 05:18:32;;;;;;;0.10;0.10;;;;;;;12.09;73.10;98569.50;5085717;28;20021;-81
2024/02/10 05:20:59;;;;;;;0.10;0.10;;;;;;;12.11;72.99;98570.25;5087017;28;20035;-80
2024/02/10 05:23:25;;;;;;;0.10;0.10;;;;;;;12.11;73.13;98581.75;5076209;28;20116;-80
2024/02/10 05:25:51;;;;;;;0.17;0.17;;;;;;;12.09;73.18;98572.16;5074912;28;20028;-80
2024/02/10 05:28:23;;;;;;;0.10;0.10;;;;;;;12.11;73.12;98573.78;5078971;28;20024;-81
2024/02/10 05:30:50;;;;;;;0.20;0.20;;;;;;;12.12;73.18;98575.50;5080119;28;20029;-81
2024/02/10 05:33:18;;;;;;;2.35;0.95;;;;;;;12.12;73.10;98583.44;5083767;28;20024;-81
2024/02/10 05:35:46;;;;;;;0.10;0.10;;;;;;;12.13;73.31;98586.94;5081748;28;20031;-81
2024/02/10 05:38:16;;;;;;;0.10;0.10;;;;;;;12.14;73.20;98576.22;5080564;28;20047;-81
2024/02/10 05:40:42;;;;;;;0.10;0.10;;;;;;;12.11;73.22;98583.53;5070867;28;20093;-81
2024/02/10 05:43:14;;;;;;;0.10;0.10;;;;;;;12.09;73.13;98586.28;5070095;28;20491;-79
2024/02/10 05:45:40;;;;;;;0.10;0.10;;;;;;;12.09;72.80;98593.41;5072391;28;20024;-81
2024/02/10 05:48:07;;;;;;;0.10;0.10;;;;;;;12.10;72.75;98589.78;5073899;28;20021;-80
2024/02/10 05:50:33;;;;;;;0.10;0.10;;;;;;;12.11;72.83;98591.47;5069126;28;20115;-81
2024/02/10 05:52:59;;;;;;;0.10;0.10;;;;;;;12.07;73.12;98589.97;5074797;28;20025;-80
2024/02/10 05:55:29;;;;;;;0.10;0.10;;;;;;;12.07;72.75;98589.97;5075319;28;20032;-80
2024/02/10 05:58:06;;;;;;;0.10;0.10;;;;;;;12.08;72.48;98591.69;5076371;28;20028;-81
2024/02/10 06:00:33;;;;;;;0.10;0.10;;;;;;;12.08;72.56;98594.34;5069397;28;20117;-81
2024/02/10 06:03:02;;;;;;;0.10;0.10;;;;;;;12.09;72.54;98596.91;5080086;28;20032;-81
2024/02/10 06:05:29;;;;;;;0.10;0.10;;;;;;;12.11;72.92;98597.66;5078176;28;20021;-80
2024/02/10 06:08:00;;;;;;;0.10;0.10;;;;;;;12.14;73.22;98596.63;5082975;28;20040;-81
2024/02/10 06:10:26;;;;;;;0.20;0.20;;;;;;;12.07;72.60;98592.63;5082841;28;20103;-81
2024/02/10 06:12:53;;;;;;;0.32;0.32;;;;;;;12.13;73.24;98603.72;5083937;28;20039;-80
2024/02/10 06:15:20;;;;;;;0.10;0.10;;;;;;;12.13;72.55;98610.84;5084758;28;20029;-80
2024/02/10 06:18:03;;;;;;;0.20;0.20;;;;;;;12.22;72.23;98625.34;5075254;28;20025;-80
2024/02/10 06:20:30;;;;;;;0.10;0.10;;;;;;;12.15;72.26;98619.56;5076161;28;20040;-81
2024/02/10 06:22:57;;;;;;;0.10;0.10;;;;;;;12.15;72.49;98616.91;5079859;28;20074;-81
2024/02/10 06:25:27;;;;;;;0.45;0.45;;;;;;;12.20;72.52;98621.91;5079438;28;20032;-81
2024/02/10 06:27:56;;;;;;;0.65;0.65;;;;;;;12.22;73.03;98620.88;5081737;28;20020;-81
2024/02/10 06:30:26;;;;;;;0.10;0.10;;;;;;;12.24;72.92;98615.47;5080757;28;20024;-81
2024/02/10 06:32:55;;;;;;;0.10;0.10;;;;;;;12.21;72.40;98626.28;5083180;28;20537;-81
2024/02/10 06:35:21;;;;;;;0.10;0.10;;;;;;;12.17;72.55;98627.44;5081106;28;20024;-81
2024/02/10 06:37:49;;;;;;;0.10;0.10;;;;;;;12.20;72.50;98622.78;5083915;28;20020;-81
2024/02/10 06:40:16;;;;;;;0.10;0.10;;;;;;;12.20;72.17;98628.09;5080230;28;20039;-81
2024/02/10 06:42:48;;;;;;;0.10;0.10;;;;;;;12.22;72.27;98634.13;5081430;28;20033;-81
2024/02/10 06:45:15;;;;;;;0.10;0.10;;;;;;;12.23;72.07;98635.00;5079402;28;20024;-81
2024/02/10 06:47:43;;;;;;;0.15;0.15;;;;;;;12.20;72.37;98637.84;5074572;28;20139;-81
2024/02/10 06:50:11;;;;;;;0.57;0.57;;;;;;;12.21;72.32;98640.41;5069766;28;20434;-80
2024/02/10 06:52:38;;;;;;;0.10;0.10;;;;;;;12.24;72.10;98647.34;5068204;28;20017;-79
2024/02/10 06:55:07;;;;;;;0.10;0.10;;;;;;;12.24;72.19;98650.84;5068149;28;20032;-81
2024/02/10 06:57:34;;;;;;;0.10;0.10;;;;;;;12.22;72.15;98647.41;5068232;28;20026;-79
2024/02/10 07:00:03;;;;;;;0.32;0.32;;;;;;;12.25;72.06;98657.84;5069540;28;20036;-79
2024/02/10 07:02:30;;;;;;;0.10;0.10;;;;;;;12.24;72.00;98661.47;5068822;28;20029;-78
2024/02/10 07:04:56;;;;;;;0.10;0.10;;;;;;;12.25;72.34;98663.16;5070656;28;20028;-81
2024/02/10 07:07:24;;;;;;;0.10;0.10;;;;;;;12.22;71.85;98665.16;5072744;28;20031;-81
2024/02/10 07:09:51;;;;;;;0.08;0.08;;;;;;;12.20;72.19;98664.38;5071793;28;20024;-80
2024/02/10 07:12:17;;;;;;;0.10;0.10;;;;;;;12.24;72.37;98661.47;5071103;28;20021;-80
2024/02/10 07:14:45;;;;;;;0.10;0.10;;;;;;;12.23;72.34;98662.41;5072652;28;20020;-81
2024/02/10 07:17:14;;;;;;;0.10;0.10;;;;;;;12.23;72.24;98657.09;5075501;28;20028;-80
2024/02/10 07:19:42;;;;;;;0.10;0.10;;;;;;;12.22;72.12;98658.03;5051106;28;20031;-81
2024/02/10 07:22:09;;;;;;;0.10;0.10;;;;;;;12.14;71.75;98665.63;5066435;28;20544;-80
2024/02/10 07:24:36;;;;;;;0.10;0.10;;;;;;;12.12;71.73;98668.41;5069337;28;20028;-84
2024/02/10 07:27:03;;;;;;;2.80;0.82;;;;;;;12.14;71.96;98666.47;5067788;28;20028;-82
2024/02/10 07:29:34;;;;;;;1.05;1.05;;;;;;;12.11;71.90;98676.44;5064347;28;20052;-80
2024/02/10 07:32:00;;;;;;;0.10;0.10;;;;;;;12.11;72.16;98673.78;5066414;28;20032;-82
2024/02/10 07:34:29;;;;;;;0.40;0.32;;;;;;;12.11;72.22;98682.59;5066519;28;20031;-81
2024/02/10 07:36:55;;;;;;;0.10;0.10;;;;;;;12.15;71.85;98688.59;5065310;28;20052;-80
2024/02/10 07:39:25;;;;;;;0.10;0.10;;;;;;;12.16;71.72;98684.97;5067166;28;20021;-80
2024/02/10 07:41:51;;;;;;;0.10;0.10;;;;;;;12.19;71.81;98676.81;5073641;28;20028;-81
2024/02/10 07:44:18;;;;;;;0.40;0.40;;;;;;;12.21;72.56;98685.56;5076002;28;20035;-80
2024/02/10 07:46:45;;;;;;;0.10;0.10;;;;;;;12.24;72.04;98682.69;5078399;28;20067;-80
2024/02/10 07:49:13;;;;;;;0.10;0.10;;;;;;;12.27;71.92;98679.88;5082287;28;20028;-80
2024/02/10 07:51:42;;;;;;;0.40;0.40;;;;;;;12.28;72.12;98684.22;5082747;28;20040;-80
2024/02/10 07:54:08;;;;;;;0.10;0.10;;;;;;;12.32;71.88;98689.34;5079403;28;20052;-80
2024/02/10 07:56:37;;;;;;;0.20;0.20;;;;;;;12.37;72.10;98684.59;5090446;28;20051;-81
2024/02/10 07:59:03;;;;;;;0.10;0.10;;;;;;;12.39;72.12;98674.75;5081181;28;20066;-81
2024/02/10 08:01:30;;;;;;;0.10;0.10;;;;;;;12.42;71.74;98686.03;5075860;28;20108;-81
2024/02/10 08:03:57;;;;;;;0.10;0.10;;;;;;;12.44;71.87;98675.31;5072138;28;20036;-80
2024/02/10 08:06:31;;;;;;;0.10;0.10;;;;;;;12.49;71.94;98678.53;5068604;28;20380;-79
2024/02/10 08:08:58;;;;;;;0.10;0.10;;;;;;;12.55;71.93;98680.78;5084104;28;20055;-81
2024/02/10 08:11:26;;;;;;;0.20;0.20;;;;;;;12.61;72.29;98691.03;5085334;28;20036;-79
2024/02/10 08:13:53;;;;;;;0.10;0.10;;;;;;;12.65;71.72;98690.81;5083427;28;20335;-79
2024/02/10 08:16:21;;;;;;;0.10;0.10;;;;;;;12.66;72.04;98695.19;5082715;28;20141;-80
2024/02/10 08:18:49;;;;;;;0.10;0.10;;;;;;;12.59;71.60;98700.91;5082736;28;20021;-79
2024/02/10 08:21:17;;;;;;;0.10;0.10;;;;;;;12.61;71.99;98706.09;5083401;28;20025;-80
2024/02/10 08:23:46;;;;;;;0.28;0.28;;;;;;;12.59;71.72;98718.66;5082799;28;20028;-80
2024/02/10 08:26:12;;;;;;;0.10;0.10;;;;;;;12.57;71.40;98713.44;5083825;28;20119;-79
2024/02/10 08:28:39;;;;;;;0.43;0.43;;;;;;;12.54;71.70;98716.28;5085511;28;20098;-80
2024/02/10 08:31:05;;;;;;;0.10;0.10;;;;;;;12.54;71.77;98713.63;5083542;28;20086;-80
2024/02/10 08:33:33;;;;;;;0.10;0.10;;;;;;;12.50;71.76;98714.75;5082973;28;20050;-79
2024/02/10 08:36:00;;;;;;;0.10;0.10;;;;;;;12.52;71.28;98720.81;5084728;28;20080;-79
2024/02/10 08:38:28;;;;;;;0.20;0.20;;;;;;;12.45;71.20;98727.47;5084492;28;20082;-79
2024/02/10 08:40:55;;;;;;;0.10;0.10;;;;;;;12.43;71.34;98732.03;5084862;28;20035;-79
2024/02/10 08:43:21;;;;;;;0.10;0.10;;;;;;;12.38;71.61;98731.44;5083242;28;20044;-79
2024/02/10 08:45:47;;;;;;;0.10;0.10;;;;;;;12.36;71.29;98733.34;5083465;28;20051;-79
2024/02/10 08:48:14;;;;;;;0.75;0.75;;;;;;;12.35;71.23;98739.59;5083179;28;20032;-79
2024/02/10 08:50:41;;;;;;;0.10;0.10;;;;;;;12.35;71.37;98736.94;5083346;28;20052;-80
2024/02/10 08:53:07;;;;;;;0.32;0.32;;;;;;;12.34;71.96;98740.56;5084642;28;20021;-80
2024/02/10 08:55:34;;;;;;;0.10;0.10;;;;;;;12.33;71.72;98744.16;5084792;28;20091;-80
2024/02/10 08:58:01;;;;;;;0.10;0.10;;;;;;;12.41;72.04;98747.19;5083285;28;20036;-82
2024/02/10 09:00:30;;;;;;;0.10;0.10;;;;;;;12.46;71.90;98743.31;5076293;28;20052;-81
2024/02/10 09:02:56;;;;;;;0.10;0.10;;;;;;;12.53;72.01;98746.44;5082409;28;20067;-82
2024/02/10 09:05:26;;;;;;;0.10;0.10;;;;;;;12.60;71.88;98750.41;5073753;28;20395;-81
2024/02/10 09:07:55;;;;;;;0.10;0.10;;;;;;;12.65;71.56;98754.59;5078268;28;20040;-81
2024/02/10 09:10:22;;;;;;;0.10;0.10;;;;;;;12.76;72.11;98749.44;5076643;28;20502;-80
2024/02/10 09:12:48;;;;;;;0.10;0.10;;;;;;;12.80;71.46;98753.66;5076671;28;20031;-80
2024/02/10 09:15:14;;;;;;;0.10;0.10;;;;;;;12.83;71.91;98748.13;5079468;28;20385;-80
2024/02/10 09:17:41;;;;;;;0.10;0.10;;;;;;;12.85;71.29;98754.22;5079385;28;20058;-80
2024/02/10 09:20:08;;;;;;;0.10;0.10;;;;;;;12.94;71.02;98766.91;5082018;28;20082;-80
2024/02/10 09:22:35;;;;;;;0.17;0.17;;;;;;;12.99;70.98;98758.66;5074263;28;20037;-82
2024/02/10 09:25:02;;;;;;;0.10;0.10;;;;;;;13.08;70.92;98757.19;5071196;28;20058;-80
2024/02/10 09:27:28;;;;;;;0.20;0.20;;;;;;;13.13;70.89;98768.41;5088261;28;20028;-81
2024/02/10 09:29:54;;;;;;;0.10;0.10;;;;;;;13.21;70.54;98767.94;5082353;28;20412;-82
2024/02/10 09:32:24;;;;;;;0.10;0.10;;;;;;;13.24;70.48;98763.25;5081335;28;20452;-81
2024/02/10 09:34:52;;;;;;;0.13;0.13;;;;;;;13.30;70.15;98769.13;5085847;28;20097;-81
2024/02/10 09:37:18;;;;;;;0.10;0.10;;;;;;;13.36;70.02;98768.75;5085739;28;20036;-81
2024/02/10 09:39:46;;;;;;;0.20;0.20;;;;;;;13.36;69.67;98766.94;5076918;28;20040;-81
2024/02/10 09:42:21;;;;;;;0.32;0.32;;;;;;;13.47;69.42;98770.72;5087081;28;20029;-80
2024/02/10 09:44:49;;;;;;;0.15;0.15;;;;;;;13.45;69.73;98770.81;5086767;28;20016;-81
2024/02/10 09:47:17;;;;;;;0.10;0.10;;;;;;;13.48;69.53;98773.28;5084434;28;20046;-81
2024/02/10 09:49:45;;;;;;;1.02;0.70;;;;;;;13.49;69.25;98780.31;5084159;28;20050;-81
2024/02/10 09:52:11;;;;;;;0.10;0.10;;;;;;;13.53;69.53;98779.16;5082342;28;20033;-81
2024/02/10 09:54:39;;;;;;;0.43;0.43;;;;;;;13.53;69.43;98768.53;5079500;28;20123;-80
2024/02/10 09:57:10;;;;;;;0.10;0.10;;;;;;;13.57;69.16;98770.03;5077806;28;20475;-81
2024/02/10 09:59:39;;;;;;;0.10;0.10;;;;;;;13.65;69.05;98766.00;5078395;28;20021;-80
2024/02/10 10:02:08;;;;;;;0.65;0.65;;;;;;;13.74;69.26;98765.38;5077805;28;20032;-81
2024/02/10 10:04:35;;;;;;;0.10;0.10;;;;;;;13.84;69.52;98768.28;5077303;28;20445;-80
2024/02/10 10:07:06;;;;;;;0.10;0.10;;;;;;;13.85;68.85;98767.34;5066090;28;20029;-81
2024/02/10 10:09:33;;;;;;;0.10;0.10;;;;;;;13.87;68.43;98774.28;5073912;28;20098;-81
2024/02/10 10:11:59;;;;;;;0.10;0.10;;;;;;;13.91;68.18;98775.75;5081268;28;20029;-81
2024/02/10 10:14:25;;;;;;;0.10;0.10;;;;;;;14.03;68.33;98770.56;5084176;28;20029;-78
2024/02/10 10:16:57;;;;;;;0.10;0.10;;;;;;;14.15;68.70;98775.06;5070552;28;20025;-78
2024/02/10 10:19:26;;;;;;;0.20;0.20;;;;;;;14.23;68.87;98775.41;5079422;28;20039;-79
2024/02/10 10:21:55;;;;;;;4.07;1.77;;;;;;;14.27;68.22;98775.16;5079001;28;20028;-80
2024/02/10 10:24:22;;;;;;;0.10;0.10;;;;;;;14.27;67.68;98777.84;5078469;28;20086;-81
2024/02/10 10:26:53;;;;;;;0.10;0.10;;;;;;;14.34;67.58;98784.47;5077985;28;20024;-80
2024/02/10 10:29:20;;;;;;;0.32;0.32;;;;;;;14.38;67.63;98786.81;5078944;28;20028;-80
2024/02/10 10:31:50;;;;;;;0.90;0.90;;;;;;;14.47;67.85;98784.47;5077452;28;20028;-81
2024/02/10 10:34:19;;;;;;;0.10;0.10;;;;;;;14.50;67.17;98778.94;5074721;28;20081;-81
2024/02/10 10:36:49;;;;;;;0.10;0.10;;;;;;;14.54;67.38;98775.06;5076773;28;20035;-82
2024/02/10 10:39:17;;;;;;;0.20;0.20;;;;;;;14.56;67.02;98774.00;5080124;28;20036;-81
2024/02/10 10:41:44;;;;;;;0.65;0.60;;;;;;;14.64;67.00;98767.28;5072828;28;20021;-80
2024/02/10 10:44:14;;;;;;;1.00;0.85;;;;;;;14.74;67.04;98767.53;5080299;28;20078;-82
2024/02/10 10:46:41;;;;;;;0.10;0.10;;;;;;;14.82;67.20;98763.38;5083704;28;20047;-80
2024/02/10 10:49:09;;;;;;;0.65;0.65;;;;;;;14.92;67.28;98768.91;5085764;28;20090;-80
2024/02/10 10:51:49;;;;;;;0.10;0.10;;;;;;;15.03;66.71;98768.16;5083654;28;20025;-80
2024/02/10 10:54:19;;;;;;;0.17;0.17;;;;;;;15.06;66.17;98769.75;5080025;28;20089;-80
2024/02/10 10:56:48;;;;;;;0.10;0.10;;;;;;;15.15;66.53;98769.94;5082197;28;20084;-80
2024/02/10 10:59:15;;;;;;;0.10;0.10;;;;;;;15.22;66.47;98777.50;5085682;28;20028;-81
2024/02/10 11:01:42;;;;;;;0.10;0.10;;;;;;;15.26;65.98;98770.97;5083729;28;20028;-81
2024/02/10 11:04:12;;;;;;;0.10;0.10;;;;;;;15.32;65.56;98775.84;5082121;28;20024;-81
2024/02/10 11:06:44;;;;;;;0.10;0.10;;;;;;;15.37;64.55;98779.88;5084352;28;20031;-82
2024/02/10 11:09:16;;;;;;;;;;;;;;;15.55;64.30;98786.66;5077054;28;20197;-81
2024/02/10 11:11:46;;;;;;;0.13;0.13;;;;;;;15.45;64.27;98784.66;5082512;28;19930;-81
2024/02/10 11:14:12;;;;;;;0.10;0.10;;;;;;;15.45;64.48;98774.00;5082073;28;20510;-81
2024/02/10 11:16:43;;;;;;;3.28;1.15;;;;;;;15.43;64.28;98773.25;5083603;28;20422;-82
2024/02/10 11:19:15;;;;;;;0.10;0.10;;;;;;;15.45;64.25;98768.66;5082471;28;20028;-81
2024/02/10 11:21:41;;;;;;;0.32;0.32;;;;;;;15.42;63.52;98763.53;5080085;28;20039;-82
2024/02/10 11:24:14;;;;;;;0.10;0.10;;;;;;;15.47;64.14;98750.69;5074170;28;20028;-80
2024/02/10 11:26:42;;;;;;;0.30;0.30;;;;;;;15.52;64.26;98755.69;5075635;28;20449;-80
2024/02/10 11:29:10;;;;;;;0.08;0.08;;;;;;;15.50;63.67;98750.47;5077149;28;20028;-80
2024/02/10 11:31:39;;;;;;;0.00;0.00;;;;;;;15.59;63.77;98753.41;5076237;28;20029;-81
2024/02/10 11:34:14;;;;;;;0.45;0.45;;;;;;;15.57;63.59;98750.03;5059250;28;20016;-81
2024/02/10 11:36:48;;;;;;;0.10;0.10;;;;;;;15.59;63.12;98753.41;5077121;28;20412;-80